sensor_id;sensor_type;location;lat;lon;timestamp;P1;durP1;ratioP1;P2;durP2;ratioP2
7031;SDS011;3557;48.880;8.328;2022-11-30T00:00:20;35.70;;;18.07;;
7031;SDS011;3557;48.880;8.328;2022-11-30T00:02:47;39.47;;;18.48;;
7031;SDS011;3557;48.880;8.328;2022-11-30T00:05:21;36.88;;;18.00;;
7031;SDS011;3557;48.880;8.328;2022-11-30T00:07:49;30.23;;;16.35;;
7031;SDS011;3557;48.880;8.328;2022-11-30T00:10:16;40.58;;;22.95;;
7031;SDS011;3557;48.880;8.328;2022-11-30T00:12:43;32.15;;;18.02;;
7031;SDS011;3557;48.880;8.328;2022-11-30T00:15:10;31.02;;;16.00;;
7031;SDS011;3557;48.880;8.328;2022-11-30T00:17:39;30.23;;;15.70;;
7031;SDS011;3557;48.880;8.328;2022-11-30T00:20:06;31.02;;;15.05;;
7031;SDS011;3557;48.880;8.328;2022-11-30T00:22:35;44.55;;;21.75;;
7031;SDS011;3557;48.880;8.328;2022-11-30T00:25:02;28.98;;;15.38;;
7031;SDS011;3557;48.880;8.328;2022-11-30T00:27:30;40.00;;;15.15;;
7031;SDS011;3557;48.880;8.328;2022-11-30T00:29:58;32.93;;;15.73;;
7031;SDS011;3557;48.880;8.328;2022-11-30T00:32:25;32.30;;;14.90;;
7031;SDS011;3557;48.880;8.328;2022-11-30T00:34:53;28.20;;;15.27;;
7031;SDS011;3557;48.880;8.328;2022-11-30T00:37:20;30.77;;;15.83;;
7031;SDS011;3557;48.880;8.328;2022-11-30T00:39:48;35.60;;;15.43;;
7031;SDS011;3557;48.880;8.328;2022-11-30T00:42:15;33.53;;;17.53;;
7031;SDS011;3557;48.880;8.328;2022-11-30T00:44:42;31.98;;;16.38;;
7031;SDS011;3557;48.880;8.328;2022-11-30T00:47:09;33.27;;;15.80;;
7031;SDS011;3557;48.880;8.328;2022-11-30T00:49:36;31.97;;;15.30;;
7031;SDS011;3557;48.880;8.328;2022-11-30T00:52:03;35.13;;;16.27;;
7031;SDS011;3557;48.880;8.328;2022-11-30T00:54:30;34.90;;;16.00;;
7031;SDS011;3557;48.880;8.328;2022-11-30T00:56:59;30.07;;;14.90;;
7031;SDS011;3557;48.880;8.328;2022-11-30T00:59:25;28.38;;;15.15;;
7031;SDS011;3557;48.880;8.328;2022-11-30T01:01:52;34.70;;;15.83;;
7031;SDS011;3557;48.880;8.328;2022-11-30T01:04:20;31.98;;;15.13;;
7031;SDS011;3557;48.880;8.328;2022-11-30T01:06:47;30.50;;;14.80;;
7031;SDS011;3557;48.880;8.328;2022-11-30T01:09:14;27.77;;;14.38;;
7031;SDS011;3557;48.880;8.328;2022-11-30T01:11:41;31.47;;;15.00;;
7031;SDS011;3557;48.880;8.328;2022-11-30T01:14:09;31.92;;;16.33;;
7031;SDS011;3557;48.880;8.328;2022-11-30T01:16:36;29.92;;;15.18;;
7031;SDS011;3557;48.880;8.328;2022-11-30T01:19:03;25.37;;;13.90;;
7031;SDS011;3557;48.880;8.328;2022-11-30T01:21:30;25.20;;;14.13;;
7031;SDS011;3557;48.880;8.328;2022-11-30T01:23:58;27.30;;;14.07;;
7031;SDS011;3557;48.880;8.328;2022-11-30T01:26:26;28.47;;;14.90;;
7031;SDS011;3557;48.880;8.328;2022-11-30T01:28:53;28.07;;;14.20;;
7031;SDS011;3557;48.880;8.328;2022-11-30T01:31:22;27.33;;;14.43;;
7031;SDS011;3557;48.880;8.328;2022-11-30T01:33:50;31.13;;;14.60;;
7031;SDS011;3557;48.880;8.328;2022-11-30T01:36:19;25.58;;;13.55;;
7031;SDS011;3557;48.880;8.328;2022-11-30T01:38:48;30.17;;;15.00;;
7031;SDS011;3557;48.880;8.328;2022-11-30T01:41:17;26.23;;;14.20;;
7031;SDS011;3557;48.880;8.328;2022-11-30T01:43:48;27.53;;;13.90;;
7031;SDS011;3557;48.880;8.328;2022-11-30T01:46:18;30.87;;;17.60;;
7031;SDS011;3557;48.880;8.328;2022-11-30T01:51:43;25.70;;;12.97;;
7031;SDS011;3557;48.880;8.328;2022-11-30T01:54:14;26.70;;;13.67;;
7031;SDS011;3557;48.880;8.328;2022-11-30T01:56:43;26.63;;;14.38;;
7031;SDS011;3557;48.880;8.328;2022-11-30T01:59:13;29.35;;;14.38;;
7031;SDS011;3557;48.880;8.328;2022-11-30T02:01:42;29.97;;;14.47;;
7031;SDS011;3557;48.880;8.328;2022-11-30T02:04:10;33.25;;;15.82;;
7031;SDS011;3557;48.880;8.328;2022-11-30T02:06:39;31.42;;;16.45;;
7031;SDS011;3557;48.880;8.328;2022-11-30T02:09:07;27.88;;;14.88;;
7031;SDS011;3557;48.880;8.328;2022-11-30T02:11:34;29.55;;;14.95;;
7031;SDS011;3557;48.880;8.328;2022-11-30T02:14:04;23.88;;;13.55;;
7031;SDS011;3557;48.880;8.328;2022-11-30T02:16:39;24.48;;;13.98;;
7031;SDS011;3557;48.880;8.328;2022-11-30T02:19:30;26.65;;;13.77;;
7031;SDS011;3557;48.880;8.328;2022-11-30T02:22:18;24.48;;;12.93;;
7031;SDS011;3557;48.880;8.328;2022-11-30T02:24:59;28.48;;;13.50;;
7031;SDS011;3557;48.880;8.328;2022-11-30T02:27:39;25.85;;;14.05;;
7031;SDS011;3557;48.880;8.328;2022-11-30T02:30:19;27.55;;;13.95;;
7031;SDS011;3557;48.880;8.328;2022-11-30T02:32:49;28.80;;;14.35;;
7031;SDS011;3557;48.880;8.328;2022-11-30T02:35:20;30.20;;;15.20;;
7031;SDS011;3557;48.880;8.328;2022-11-30T02:37:50;34.38;;;15.80;;
7031;SDS011;3557;48.880;8.328;2022-11-30T02:40:19;34.65;;;15.95;;
7031;SDS011;3557;48.880;8.328;2022-11-30T02:42:46;31.27;;;14.88;;
7031;SDS011;3557;48.880;8.328;2022-11-30T02:45:15;30.52;;;16.42;;
7031;SDS011;3557;48.880;8.328;2022-11-30T02:47:47;35.80;;;16.27;;
7031;SDS011;3557;48.880;8.328;2022-11-30T02:50:21;33.13;;;15.10;;
7031;SDS011;3557;48.880;8.328;2022-11-30T02:52:51;34.13;;;16.05;;
7031;SDS011;3557;48.880;8.328;2022-11-30T02:55:18;37.55;;;15.10;;
7031;SDS011;3557;48.880;8.328;2022-11-30T02:57:46;36.30;;;16.40;;
7031;SDS011;3557;48.880;8.328;2022-11-30T03:00:15;41.90;;;17.00;;
7031;SDS011;3557;48.880;8.328;2022-11-30T03:02:42;43.33;;;17.43;;
7031;SDS011;3557;48.880;8.328;2022-11-30T03:05:11;46.37;;;17.73;;
7031;SDS011;3557;48.880;8.328;2022-11-30T03:07:40;47.60;;;17.97;;
7031;SDS011;3557;48.880;8.328;2022-11-30T03:10:07;44.70;;;18.40;;
7031;SDS011;3557;48.880;8.328;2022-11-30T03:12:35;43.85;;;18.13;;
7031;SDS011;3557;48.880;8.328;2022-11-30T03:15:02;52.53;;;17.83;;
7031;SDS011;3557;48.880;8.328;2022-11-30T03:17:29;48.00;;;16.77;;
7031;SDS011;3557;48.880;8.328;2022-11-30T03:19:55;53.03;;;18.03;;
7031;SDS011;3557;48.880;8.328;2022-11-30T03:22:24;53.13;;;19.00;;
7031;SDS011;3557;48.880;8.328;2022-11-30T03:24:51;52.87;;;17.67;;
7031;SDS011;3557;48.880;8.328;2022-11-30T03:27:18;53.73;;;17.77;;
7031;SDS011;3557;48.880;8.328;2022-11-30T03:29:45;48.30;;;17.83;;
7031;SDS011;3557;48.880;8.328;2022-11-30T03:32:12;49.83;;;17.07;;
7031;SDS011;3557;48.880;8.328;2022-11-30T03:34:38;54.03;;;17.93;;
7031;SDS011;3557;48.880;8.328;2022-11-30T03:37:06;50.90;;;17.20;;
7031;SDS011;3557;48.880;8.328;2022-11-30T03:39:34;56.50;;;18.70;;
7031;SDS011;3557;48.880;8.328;2022-11-30T03:42:01;52.63;;;18.97;;
7031;SDS011;3557;48.880;8.328;2022-11-30T03:44:28;47.17;;;16.87;;
7031;SDS011;3557;48.880;8.328;2022-11-30T03:46:55;58.27;;;18.67;;
7031;SDS011;3557;48.880;8.328;2022-11-30T03:49:22;51.83;;;18.63;;
7031;SDS011;3557;48.880;8.328;2022-11-30T03:51:49;55.83;;;18.10;;
7031;SDS011;3557;48.880;8.328;2022-11-30T03:54:15;57.57;;;18.83;;
7031;SDS011;3557;48.880;8.328;2022-11-30T03:56:44;51.73;;;18.07;;
7031;SDS011;3557;48.880;8.328;2022-11-30T03:59:11;54.13;;;18.60;;
7031;SDS011;3557;48.880;8.328;2022-11-30T04:01:38;52.57;;;17.23;;
7031;SDS011;3557;48.880;8.328;2022-11-30T04:04:05;50.50;;;17.50;;
7031;SDS011;3557;48.880;8.328;2022-11-30T04:06:32;55.47;;;17.80;;
7031;SDS011;3557;48.880;8.328;2022-11-30T04:08:59;54.00;;;18.87;;
7031;SDS011;3557;48.880;8.328;2022-11-30T04:11:27;60.77;;;19.03;;
7031;SDS011;3557;48.880;8.328;2022-11-30T04:13:55;51.50;;;17.08;;
7031;SDS011;3557;48.880;8.328;2022-11-30T04:16:22;54.97;;;17.47;;
7031;SDS011;3557;48.880;8.328;2022-11-30T04:18:49;47.57;;;17.03;;
7031;SDS011;3557;48.880;8.328;2022-11-30T04:21:16;56.50;;;17.45;;
7031;SDS011;3557;48.880;8.328;2022-11-30T04:23:44;54.83;;;17.23;;
7031;SDS011;3557;48.880;8.328;2022-11-30T04:26:11;46.25;;;16.02;;
7031;SDS011;3557;48.880;8.328;2022-11-30T04:28:40;46.47;;;16.98;;
7031;SDS011;3557;48.880;8.328;2022-11-30T04:31:09;47.20;;;17.15;;
7031;SDS011;3557;48.880;8.328;2022-11-30T04:33:36;40.80;;;16.10;;
7031;SDS011;3557;48.880;8.328;2022-11-30T04:36:04;39.65;;;15.50;;
7031;SDS011;3557;48.880;8.328;2022-11-30T04:38:32;38.53;;;15.85;;
7031;SDS011;3557;48.880;8.328;2022-11-30T04:41:04;43.45;;;16.02;;
7031;SDS011;3557;48.880;8.328;2022-11-30T04:43:32;45.20;;;16.10;;
7031;SDS011;3557;48.880;8.328;2022-11-30T04:45:58;42.92;;;16.48;;
7031;SDS011;3557;48.880;8.328;2022-11-30T04:48:27;37.53;;;15.32;;
7031;SDS011;3557;48.880;8.328;2022-11-30T04:50:56;45.40;;;16.40;;
7031;SDS011;3557;48.880;8.328;2022-11-30T04:53:25;39.88;;;16.90;;
7031;SDS011;3557;48.880;8.328;2022-11-30T04:55:52;40.92;;;16.63;;
7031;SDS011;3557;48.880;8.328;2022-11-30T04:58:19;39.10;;;15.87;;
7031;SDS011;3557;48.880;8.328;2022-11-30T05:00:46;40.95;;;15.77;;
7031;SDS011;3557;48.880;8.328;2022-11-30T05:03:13;42.40;;;16.50;;
7031;SDS011;3557;48.880;8.328;2022-11-30T05:05:41;43.63;;;15.90;;
7031;SDS011;3557;48.880;8.328;2022-11-30T05:08:08;36.97;;;14.70;;
7031;SDS011;3557;48.880;8.328;2022-11-30T05:10:35;36.78;;;15.65;;
7031;SDS011;3557;48.880;8.328;2022-11-30T05:13:02;35.53;;;15.32;;
7031;SDS011;3557;48.880;8.328;2022-11-30T05:15:30;33.73;;;15.10;;
7031;SDS011;3557;48.880;8.328;2022-11-30T05:17:57;62.78;;;32.22;;
7031;SDS011;3557;48.880;8.328;2022-11-30T05:20:25;68.80;;;38.53;;
7031;SDS011;3557;48.880;8.328;2022-11-30T05:22:53;47.40;;;26.05;;
7031;SDS011;3557;48.880;8.328;2022-11-30T05:25:20;33.93;;;16.87;;
7031;SDS011;3557;48.880;8.328;2022-11-30T05:27:47;34.13;;;15.48;;
7031;SDS011;3557;48.880;8.328;2022-11-30T05:30:14;35.33;;;15.30;;
7031;SDS011;3557;48.880;8.328;2022-11-30T05:32:41;31.43;;;15.93;;
7031;SDS011;3557;48.880;8.328;2022-11-30T05:35:09;34.50;;;15.00;;
7031;SDS011;3557;48.880;8.328;2022-11-30T05:37:36;34.77;;;16.00;;
7031;SDS011;3557;48.880;8.328;2022-11-30T05:40:05;35.43;;;15.67;;
7031;SDS011;3557;48.880;8.328;2022-11-30T05:42:32;36.23;;;15.00;;
7031;SDS011;3557;48.880;8.328;2022-11-30T05:44:59;35.60;;;15.70;;
7031;SDS011;3557;48.880;8.328;2022-11-30T05:47:26;33.87;;;14.70;;
7031;SDS011;3557;48.880;8.328;2022-11-30T05:49:53;36.60;;;15.23;;
7031;SDS011;3557;48.880;8.328;2022-11-30T05:52:21;37.20;;;15.90;;
7031;SDS011;3557;48.880;8.328;2022-11-30T05:54:48;37.03;;;15.57;;
7031;SDS011;3557;48.880;8.328;2022-11-30T05:57:16;36.63;;;15.20;;
7031;SDS011;3557;48.880;8.328;2022-11-30T05:59:43;33.93;;;14.57;;
7031;SDS011;3557;48.880;8.328;2022-11-30T06:02:10;40.13;;;16.40;;
7031;SDS011;3557;48.880;8.328;2022-11-30T06:04:36;32.50;;;15.10;;
7031;SDS011;3557;48.880;8.328;2022-11-30T06:07:03;31.37;;;14.37;;
7031;SDS011;3557;48.880;8.328;2022-11-30T06:09:35;31.67;;;15.10;;
7031;SDS011;3557;48.880;8.328;2022-11-30T06:12:02;31.00;;;14.73;;
7031;SDS011;3557;48.880;8.328;2022-11-30T06:14:31;32.00;;;14.97;;
7031;SDS011;3557;48.880;8.328;2022-11-30T06:16:58;33.13;;;14.90;;
7031;SDS011;3557;48.880;8.328;2022-11-30T06:19:25;29.67;;;13.87;;
7031;SDS011;3557;48.880;8.328;2022-11-30T06:21:53;30.97;;;13.60;;
7031;SDS011;3557;48.880;8.328;2022-11-30T06:24:20;30.30;;;14.00;;
7031;SDS011;3557;48.880;8.328;2022-11-30T06:26:47;30.53;;;14.30;;
7031;SDS011;3557;48.880;8.328;2022-11-30T06:29:14;30.63;;;15.07;;
7031;SDS011;3557;48.880;8.328;2022-11-30T06:31:43;32.63;;;17.23;;
7031;SDS011;3557;48.880;8.328;2022-11-30T06:34:09;28.93;;;15.13;;
7031;SDS011;3557;48.880;8.328;2022-11-30T06:36:36;29.87;;;15.20;;
7031;SDS011;3557;48.880;8.328;2022-11-30T06:39:03;30.90;;;15.77;;
7031;SDS011;3557;48.880;8.328;2022-11-30T06:41:31;33.33;;;15.50;;
7031;SDS011;3557;48.880;8.328;2022-11-30T06:43:57;34.40;;;16.47;;
7031;SDS011;3557;48.880;8.328;2022-11-30T06:46:24;30.53;;;15.43;;
7031;SDS011;3557;48.880;8.328;2022-11-30T06:48:53;30.47;;;15.40;;
7031;SDS011;3557;48.880;8.328;2022-11-30T06:51:20;32.73;;;16.67;;
7031;SDS011;3557;48.880;8.328;2022-11-30T06:53:47;28.40;;;15.07;;
7031;SDS011;3557;48.880;8.328;2022-11-30T06:56:14;31.53;;;16.27;;
7031;SDS011;3557;48.880;8.328;2022-11-30T06:58:41;35.40;;;18.90;;
7031;SDS011;3557;48.880;8.328;2022-11-30T07:01:08;30.90;;;15.43;;
7031;SDS011;3557;48.880;8.328;2022-11-30T07:03:36;31.00;;;14.77;;
7031;SDS011;3557;48.880;8.328;2022-11-30T07:06:06;27.33;;;14.00;;
7031;SDS011;3557;48.880;8.328;2022-11-30T07:08:34;27.43;;;15.17;;
7031;SDS011;3557;48.880;8.328;2022-11-30T07:11:01;30.27;;;14.53;;
7031;SDS011;3557;48.880;8.328;2022-11-30T07:13:28;32.17;;;15.53;;
7031;SDS011;3557;48.880;8.328;2022-11-30T07:15:55;31.37;;;15.37;;
7031;SDS011;3557;48.880;8.328;2022-11-30T07:18:22;28.43;;;14.57;;
7031;SDS011;3557;48.880;8.328;2022-11-30T07:20:49;32.47;;;15.33;;
7031;SDS011;3557;48.880;8.328;2022-11-30T07:23:18;34.53;;;15.03;;
7031;SDS011;3557;48.880;8.328;2022-11-30T07:26:02;34.33;;;14.20;;
7031;SDS011;3557;48.880;8.328;2022-11-30T07:28:33;33.33;;;14.83;;
7031;SDS011;3557;48.880;8.328;2022-11-30T07:31:11;32.07;;;14.90;;
7031;SDS011;3557;48.880;8.328;2022-11-30T07:33:43;27.73;;;14.63;;
7031;SDS011;3557;48.880;8.328;2022-11-30T07:36:10;28.10;;;14.70;;
7031;SDS011;3557;48.880;8.328;2022-11-30T07:38:38;25.93;;;14.33;;
7031;SDS011;3557;48.880;8.328;2022-11-30T07:41:05;32.40;;;15.27;;
7031;SDS011;3557;48.880;8.328;2022-11-30T07:43:33;31.40;;;14.77;;
7031;SDS011;3557;48.880;8.328;2022-11-30T07:46:00;27.70;;;14.10;;
7031;SDS011;3557;48.880;8.328;2022-11-30T07:48:27;30.97;;;14.70;;
7031;SDS011;3557;48.880;8.328;2022-11-30T07:51:00;27.77;;;13.67;;
7031;SDS011;3557;48.880;8.328;2022-11-30T07:53:27;29.90;;;14.20;;
7031;SDS011;3557;48.880;8.328;2022-11-30T07:56:01;25.23;;;13.63;;
7031;SDS011;3557;48.880;8.328;2022-11-30T07:58:29;27.43;;;14.07;;
7031;SDS011;3557;48.880;8.328;2022-11-30T08:00:59;25.93;;;14.17;;
7031;SDS011;3557;48.880;8.328;2022-11-30T08:03:27;25.43;;;14.00;;
7031;SDS011;3557;48.880;8.328;2022-11-30T08:05:58;28.73;;;14.53;;
7031;SDS011;3557;48.880;8.328;2022-11-30T08:08:27;46.40;;;23.83;;
7031;SDS011;3557;48.880;8.328;2022-11-30T08:10:55;31.77;;;15.63;;
7031;SDS011;3557;48.880;8.328;2022-11-30T08:13:23;24.37;;;13.80;;
7031;SDS011;3557;48.880;8.328;2022-11-30T08:15:50;28.43;;;14.23;;
7031;SDS011;3557;48.880;8.328;2022-11-30T08:18:18;30.60;;;13.70;;
7031;SDS011;3557;48.880;8.328;2022-11-30T08:20:45;28.17;;;13.83;;
7031;SDS011;3557;48.880;8.328;2022-11-30T08:23:12;26.53;;;13.40;;
7031;SDS011;3557;48.880;8.328;2022-11-30T08:25:39;25.30;;;13.73;;
7031;SDS011;3557;48.880;8.328;2022-11-30T08:28:06;26.63;;;13.90;;
7031;SDS011;3557;48.880;8.328;2022-11-30T08:30:34;23.17;;;13.13;;
7031;SDS011;3557;48.880;8.328;2022-11-30T08:33:01;21.50;;;13.27;;
7031;SDS011;3557;48.880;8.328;2022-11-30T08:35:27;20.13;;;12.43;;
7031;SDS011;3557;48.880;8.328;2022-11-30T08:37:54;22.40;;;13.67;;
7031;SDS011;3557;48.880;8.328;2022-11-30T08:40:21;21.13;;;12.10;;
7031;SDS011;3557;48.880;8.328;2022-11-30T08:42:48;26.27;;;14.57;;
7031;SDS011;3557;48.880;8.328;2022-11-30T08:45:15;20.93;;;13.73;;
7031;SDS011;3557;48.880;8.328;2022-11-30T08:47:43;20.13;;;12.37;;
7031;SDS011;3557;48.880;8.328;2022-11-30T08:50:10;19.67;;;12.10;;
7031;SDS011;3557;48.880;8.328;2022-11-30T08:52:37;19.65;;;11.98;;
7031;SDS011;3557;48.880;8.328;2022-11-30T08:55:04;19.83;;;12.03;;
7031;SDS011;3557;48.880;8.328;2022-11-30T08:57:32;21.10;;;12.90;;
7031;SDS011;3557;48.880;8.328;2022-11-30T08:59:59;22.45;;;12.45;;
7031;SDS011;3557;48.880;8.328;2022-11-30T09:02:26;22.13;;;12.30;;
7031;SDS011;3557;48.880;8.328;2022-11-30T09:04:54;24.03;;;13.17;;
7031;SDS011;3557;48.880;8.328;2022-11-30T09:07:21;20.90;;;12.75;;
7031;SDS011;3557;48.880;8.328;2022-11-30T09:09:48;19.55;;;12.77;;
7031;SDS011;3557;48.880;8.328;2022-11-30T09:12:15;20.05;;;12.50;;
7031;SDS011;3557;48.880;8.328;2022-11-30T09:14:42;18.63;;;12.10;;
7031;SDS011;3557;48.880;8.328;2022-11-30T09:17:10;18.95;;;12.13;;
7031;SDS011;3557;48.880;8.328;2022-11-30T09:19:36;19.58;;;12.70;;
7031;SDS011;3557;48.880;8.328;2022-11-30T09:22:05;59.75;;;33.40;;
7031;SDS011;3557;48.880;8.328;2022-11-30T09:24:31;17.42;;;11.90;;
7031;SDS011;3557;48.880;8.328;2022-11-30T09:26:59;17.38;;;10.77;;
7031;SDS011;3557;48.880;8.328;2022-11-30T09:29:26;15.85;;;10.82;;
7031;SDS011;3557;48.880;8.328;2022-11-30T09:31:52;17.83;;;10.48;;
7031;SDS011;3557;48.880;8.328;2022-11-30T09:34:19;14.40;;;10.07;;
7031;SDS011;3557;48.880;8.328;2022-11-30T09:36:46;18.20;;;10.27;;
7031;SDS011;3557;48.880;8.328;2022-11-30T09:39:15;15.75;;;9.82;;
7031;SDS011;3557;48.880;8.328;2022-11-30T09:41:51;17.10;;;10.63;;
7031;SDS011;3557;48.880;8.328;2022-11-30T09:44:43;17.15;;;11.10;;
7031;SDS011;3557;48.880;8.328;2022-11-30T09:47:24;15.98;;;10.73;;
7031;SDS011;3557;48.880;8.328;2022-11-30T09:50:15;16.45;;;10.88;;
7031;SDS011;3557;48.880;8.328;2022-11-30T09:52:45;16.80;;;10.50;;
7031;SDS011;3557;48.880;8.328;2022-11-30T09:55:21;19.58;;;13.25;;
7031;SDS011;3557;48.880;8.328;2022-11-30T09:57:52;17.60;;;11.18;;
7031;SDS011;3557;48.880;8.328;2022-11-30T10:00:21;14.13;;;9.90;;
7031;SDS011;3557;48.880;8.328;2022-11-30T10:02:49;14.43;;;10.27;;
7031;SDS011;3557;48.880;8.328;2022-11-30T10:05:18;15.57;;;10.55;;
7031;SDS011;3557;48.880;8.328;2022-11-30T10:07:50;14.10;;;10.68;;
7031;SDS011;3557;48.880;8.328;2022-11-30T10:10:26;21.08;;;11.80;;
7031;SDS011;3557;48.880;8.328;2022-11-30T10:13:01;18.50;;;11.20;;
7031;SDS011;3557;48.880;8.328;2022-11-30T10:15:44;15.25;;;9.32;;
7031;SDS011;3557;48.880;8.328;2022-11-30T10:18:23;32.40;;;15.88;;
7031;SDS011;3557;48.880;8.328;2022-11-30T10:20:54;15.82;;;10.85;;
7031;SDS011;3557;48.880;8.328;2022-11-30T10:26:31;12.50;;;9.10;;
7031;SDS011;3557;48.880;8.328;2022-11-30T10:29:00;12.27;;;8.75;;
7031;SDS011;3557;48.880;8.328;2022-11-30T10:31:33;11.27;;;8.63;;
7031;SDS011;3557;48.880;8.328;2022-11-30T10:34:16;13.52;;;8.93;;
7031;SDS011;3557;48.880;8.328;2022-11-30T10:36:46;12.40;;;8.40;;
7031;SDS011;3557;48.880;8.328;2022-11-30T10:39:18;11.15;;;8.20;;
7031;SDS011;3557;48.880;8.328;2022-11-30T10:41:52;11.32;;;8.85;;
7031;SDS011;3557;48.880;8.328;2022-11-30T10:44:24;12.02;;;8.60;;
7031;SDS011;3557;48.880;8.328;2022-11-30T10:46:55;11.52;;;8.32;;
7031;SDS011;3557;48.880;8.328;2022-11-30T10:49:27;12.80;;;7.78;;
7031;SDS011;3557;48.880;8.328;2022-11-30T10:51:56;11.63;;;8.25;;
7031;SDS011;3557;48.880;8.328;2022-11-30T10:54:28;12.70;;;8.90;;
7031;SDS011;3557;48.880;8.328;2022-11-30T10:56:57;12.20;;;8.65;;
7031;SDS011;3557;48.880;8.328;2022-11-30T10:59:26;12.77;;;7.90;;
7031;SDS011;3557;48.880;8.328;2022-11-30T11:01:55;12.48;;;8.80;;
7031;SDS011;3557;48.880;8.328;2022-11-30T11:04:22;11.77;;;8.20;;
7031;SDS011;3557;48.880;8.328;2022-11-30T11:06:51;12.10;;;8.02;;
7031;SDS011;3557;48.880;8.328;2022-11-30T11:09:32;10.55;;;7.82;;
7031;SDS011;3557;48.880;8.328;2022-11-30T11:12:03;11.35;;;8.13;;
7031;SDS011;3557;48.880;8.328;2022-11-30T11:14:31;10.43;;;7.50;;
7031;SDS011;3557;48.880;8.328;2022-11-30T11:16:59;12.43;;;8.23;;
7031;SDS011;3557;48.880;8.328;2022-11-30T11:19:33;12.30;;;8.43;;
7031;SDS011;3557;48.880;8.328;2022-11-30T11:22:03;10.77;;;8.30;;
7031;SDS011;3557;48.880;8.328;2022-11-30T11:24:32;10.18;;;7.65;;
7031;SDS011;3557;48.880;8.328;2022-11-30T11:27:00;12.23;;;8.20;;
7031;SDS011;3557;48.880;8.328;2022-11-30T11:29:29;10.85;;;8.50;;
7031;SDS011;3557;48.880;8.328;2022-11-30T11:32:08;16.15;;;9.27;;
7031;SDS011;3557;48.880;8.328;2022-11-30T11:34:43;16.15;;;8.80;;
7031;SDS011;3557;48.880;8.328;2022-11-30T11:37:13;49.15;;;22.75;;
7031;SDS011;3557;48.880;8.328;2022-11-30T11:39:54;23.60;;;11.70;;
7031;SDS011;3557;48.880;8.328;2022-11-30T11:42:22;17.40;;;10.65;;
7031;SDS011;3557;48.880;8.328;2022-11-30T11:44:53;12.15;;;8.48;;
7031;SDS011;3557;48.880;8.328;2022-11-30T11:47:22;10.88;;;8.18;;
7031;SDS011;3557;48.880;8.328;2022-11-30T11:50:02;10.88;;;8.38;;
7031;SDS011;3557;48.880;8.328;2022-11-30T11:52:31;10.38;;;7.82;;
7031;SDS011;3557;48.880;8.328;2022-11-30T11:54:58;14.20;;;9.40;;
7031;SDS011;3557;48.880;8.328;2022-11-30T11:57:33;12.73;;;9.40;;
7031;SDS011;3557;48.880;8.328;2022-11-30T12:00:10;13.10;;;9.23;;
7031;SDS011;3557;48.880;8.328;2022-11-30T12:02:44;11.32;;;8.07;;
7031;SDS011;3557;48.880;8.328;2022-11-30T12:05:17;11.18;;;8.15;;
7031;SDS011;3557;48.880;8.328;2022-11-30T12:07:52;10.75;;;7.50;;
7031;SDS011;3557;48.880;8.328;2022-11-30T12:10:28;12.15;;;8.15;;
7031;SDS011;3557;48.880;8.328;2022-11-30T12:12:59;10.15;;;7.80;;
7031;SDS011;3557;48.880;8.328;2022-11-30T12:15:30;12.65;;;7.90;;
7031;SDS011;3557;48.880;8.328;2022-11-30T12:18:06;11.90;;;8.05;;
7031;SDS011;3557;48.880;8.328;2022-11-30T12:20:46;10.85;;;8.13;;
7031;SDS011;3557;48.880;8.328;2022-11-30T12:26:14;13.02;;;8.82;;
7031;SDS011;3557;48.880;8.328;2022-11-30T12:29:03;11.90;;;8.30;;
7031;SDS011;3557;48.880;8.328;2022-11-30T12:31:45;11.68;;;8.32;;
7031;SDS011;3557;48.880;8.328;2022-11-30T12:34:29;11.30;;;8.45;;
7031;SDS011;3557;48.880;8.328;2022-11-30T12:37:11;11.55;;;8.13;;
7031;SDS011;3557;48.880;8.328;2022-11-30T12:39:47;13.80;;;8.73;;
7031;SDS011;3557;48.880;8.328;2022-11-30T12:42:19;11.52;;;8.02;;
7031;SDS011;3557;48.880;8.328;2022-11-30T12:44:57;11.52;;;8.05;;
7031;SDS011;3557;48.880;8.328;2022-11-30T12:47:35;11.40;;;8.38;;
7031;SDS011;3557;48.880;8.328;2022-11-30T12:50:21;13.35;;;8.50;;
7031;SDS011;3557;48.880;8.328;2022-11-30T12:52:58;15.23;;;10.18;;
7031;SDS011;3557;48.880;8.328;2022-11-30T12:55:36;15.18;;;9.57;;
7031;SDS011;3557;48.880;8.328;2022-11-30T12:58:13;27.20;;;15.13;;
7031;SDS011;3557;48.880;8.328;2022-11-30T13:00:47;18.95;;;10.68;;
7031;SDS011;3557;48.880;8.328;2022-11-30T13:03:36;15.68;;;9.52;;
7031;SDS011;3557;48.880;8.328;2022-11-30T13:06:10;12.70;;;9.20;;
7031;SDS011;3557;48.880;8.328;2022-11-30T13:08:43;11.75;;;8.55;;
7031;SDS011;3557;48.880;8.328;2022-11-30T13:11:17;12.88;;;9.48;;
7031;SDS011;3557;48.880;8.328;2022-11-30T13:13:46;13.93;;;9.00;;
7031;SDS011;3557;48.880;8.328;2022-11-30T13:16:16;12.80;;;9.40;;
7031;SDS011;3557;48.880;8.328;2022-11-30T13:18:45;13.80;;;10.80;;
7031;SDS011;3557;48.880;8.328;2022-11-30T13:21:15;16.98;;;10.75;;
7031;SDS011;3557;48.880;8.328;2022-11-30T13:23:51;14.93;;;10.75;;
7031;SDS011;3557;48.880;8.328;2022-11-30T13:26:26;15.20;;;9.52;;
7031;SDS011;3557;48.880;8.328;2022-11-30T13:29:01;14.45;;;8.93;;
7031;SDS011;3557;48.880;8.328;2022-11-30T13:31:37;13.40;;;9.00;;
7031;SDS011;3557;48.880;8.328;2022-11-30T13:34:22;14.50;;;9.68;;
7031;SDS011;3557;48.880;8.328;2022-11-30T13:36:50;12.15;;;8.55;;
7031;SDS011;3557;48.880;8.328;2022-11-30T13:39:25;15.20;;;9.90;;
7031;SDS011;3557;48.880;8.328;2022-11-30T13:45:17;11.55;;;8.32;;
7031;SDS011;3557;48.880;8.328;2022-11-30T13:47:51;13.77;;;9.45;;
7031;SDS011;3557;48.880;8.328;2022-11-30T13:50:23;11.57;;;7.80;;
7031;SDS011;3557;48.880;8.328;2022-11-30T13:53:05;12.35;;;8.25;;
7031;SDS011;3557;48.880;8.328;2022-11-30T13:56:01;13.20;;;8.73;;
7031;SDS011;3557;48.880;8.328;2022-11-30T14:05:09;13.93;;;8.95;;
7031;SDS011;3557;48.880;8.328;2022-11-30T14:08:08;12.68;;;8.55;;
7031;SDS011;3557;48.880;8.328;2022-11-30T14:10:42;14.43;;;9.52;;
7031;SDS011;3557;48.880;8.328;2022-11-30T14:13:25;13.88;;;9.88;;
7031;SDS011;3557;48.880;8.328;2022-11-30T14:15:55;13.98;;;8.98;;
7031;SDS011;3557;48.880;8.328;2022-11-30T14:18:36;12.90;;;8.63;;
7031;SDS011;3557;48.880;8.328;2022-11-30T14:21:16;12.77;;;9.00;;
7031;SDS011;3557;48.880;8.328;2022-11-30T14:23:49;13.32;;;8.70;;
7031;SDS011;3557;48.880;8.328;2022-11-30T14:26:21;11.40;;;8.25;;
7031;SDS011;3557;48.880;8.328;2022-11-30T14:28:51;12.38;;;9.05;;
7031;SDS011;3557;48.880;8.328;2022-11-30T14:31:23;12.70;;;8.55;;
7031;SDS011;3557;48.880;8.328;2022-11-30T14:33:52;13.18;;;8.88;;
7031;SDS011;3557;48.880;8.328;2022-11-30T14:36:21;14.18;;;9.07;;
7031;SDS011;3557;48.880;8.328;2022-11-30T14:38:53;13.57;;;8.77;;
7031;SDS011;3557;48.880;8.328;2022-11-30T14:41:21;14.20;;;9.55;;
7031;SDS011;3557;48.880;8.328;2022-11-30T14:43:56;12.55;;;9.13;;
7031;SDS011;3557;48.880;8.328;2022-11-30T14:46:27;13.48;;;9.60;;
7031;SDS011;3557;48.880;8.328;2022-11-30T14:49:05;17.23;;;10.40;;
7031;SDS011;3557;48.880;8.328;2022-11-30T14:51:33;18.83;;;11.13;;
7031;SDS011;3557;48.880;8.328;2022-11-30T14:54:04;16.15;;;10.95;;
7031;SDS011;3557;48.880;8.328;2022-11-30T14:56:39;22.83;;;14.95;;
7031;SDS011;3557;48.880;8.328;2022-11-30T14:59:15;23.70;;;13.45;;
7031;SDS011;3557;48.880;8.328;2022-11-30T15:01:54;17.85;;;11.48;;
7031;SDS011;3557;48.880;8.328;2022-11-30T15:04:22;12.05;;;9.02;;
7031;SDS011;3557;48.880;8.328;2022-11-30T15:06:52;13.95;;;9.02;;
7031;SDS011;3557;48.880;8.328;2022-11-30T15:09:21;14.18;;;9.02;;
7031;SDS011;3557;48.880;8.328;2022-11-30T15:11:53;16.48;;;10.80;;
7031;SDS011;3557;48.880;8.328;2022-11-30T15:14:20;19.92;;;12.32;;
7031;SDS011;3557;48.880;8.328;2022-11-30T15:16:48;13.80;;;9.70;;
7031;SDS011;3557;48.880;8.328;2022-11-30T15:19:19;18.77;;;12.57;;
7031;SDS011;3557;48.880;8.328;2022-11-30T15:21:47;14.38;;;10.25;;
7031;SDS011;3557;48.880;8.328;2022-11-30T15:24:15;11.70;;;8.80;;
7031;SDS011;3557;48.880;8.328;2022-11-30T15:26:46;12.23;;;9.15;;